Sweden, Pennsylvania
Current Conditions -  °F | °C
As of 5:56 PM on Saturday 20 Dec 2014 (Local Time) from KELZ Reporting Station
Overcast Overcast  
Wind Chill: 25°   Ceiling: 1200
Heat Index: 25°   Visibility: 10mi
Dew Point: 19°   Wind: 0mph
Humidity: 78%   Direction: NA
Pressure: 30.19"   Gusts: NA
Location:  41.7605°N, 77.9728°W
Report Text: KELZ 202256Z AUTO 00000KT 10SM OVC012 M04/M07 A3019 RMK AO2 SLP253 T10391072
Loading
Personal Weather Stations






























Interactive Weather Map New forecast layout! Learn more

10-Day Weather Forecast

Advertisements
Track Severe Weather on mobile